sensor_id;sensor_type;location;lat;lon;timestamp;P1;durP1;ratioP1;P2;durP2;ratioP2
31010;SDS011;26395;53.412;19.598;2023-04-12T00:08:50;17.60;;;10.80;;
31010;SDS011;26395;53.412;19.598;2023-04-12T00:23:53;17.90;;;10.80;;
31010;SDS011;26395;53.412;19.598;2023-04-12T00:38:57;112.30;;;50.20;;
31010;SDS011;26395;53.412;19.598;2023-04-12T00:54:00;21.20;;;12.70;;
31010;SDS011;26395;53.412;19.598;2023-04-12T01:24:19;25.60;;;14.40;;
31010;SDS011;26395;53.412;19.598;2023-04-12T01:39:32;16.30;;;9.30;;
31010;SDS011;26395;53.412;19.598;2023-04-12T01:54:37;17.50;;;10.50;;
31010;SDS011;26395;53.412;19.598;2023-04-12T02:09:44;21.20;;;12.00;;
31010;SDS011;26395;53.412;19.598;2023-04-12T02:24:47;17.60;;;11.30;;
31010;SDS011;26395;53.412;19.598;2023-04-12T02:39:52;15.90;;;9.90;;
31010;SDS011;26395;53.412;19.598;2023-04-12T02:54:59;13.70;;;8.90;;
31010;SDS011;26395;53.412;19.598;2023-04-12T03:10:03;21.30;;;11.20;;
31010;SDS011;26395;53.412;19.598;2023-04-12T03:25:11;20.70;;;11.40;;
31010;SDS011;26395;53.412;19.598;2023-04-12T03:40:19;16.20;;;9.40;;
31010;SDS011;26395;53.412;19.598;2023-04-12T03:55:29;16.80;;;10.40;;
31010;SDS011;26395;53.412;19.598;2023-04-12T04:10:34;17.20;;;10.20;;
31010;SDS011;26395;53.412;19.598;2023-04-12T04:25:38;19.90;;;12.10;;
31010;SDS011;26395;53.412;19.598;2023-04-12T04:40:42;21.20;;;11.20;;
31010;SDS011;26395;53.412;19.598;2023-04-12T04:55:46;15.70;;;10.10;;
31010;SDS011;26395;53.412;19.598;2023-04-12T05:10:51;18.70;;;12.10;;
31010;SDS011;26395;53.412;19.598;2023-04-12T05:25:56;18.10;;;11.80;;
31010;SDS011;26395;53.412;19.598;2023-04-12T05:40:59;14.40;;;9.80;;
31010;SDS011;26395;53.412;19.598;2023-04-12T05:56:07;16.20;;;10.10;;
31010;SDS011;26395;53.412;19.598;2023-04-12T06:11:10;14.80;;;9.90;;
31010;SDS011;26395;53.412;19.598;2023-04-12T06:26:16;27.00;;;14.20;;
31010;SDS011;26395;53.412;19.598;2023-04-12T06:41:21;27.10;;;16.20;;
31010;SDS011;26395;53.412;19.598;2023-04-12T06:56:35;24.60;;;16.30;;
31010;SDS011;26395;53.412;19.598;2023-04-12T07:11:39;32.60;;;18.50;;
31010;SDS011;26395;53.412;19.598;2023-04-12T07:26:42;24.20;;;16.50;;
31010;SDS011;26395;53.412;19.598;2023-04-12T07:41:45;28.50;;;18.40;;
31010;SDS011;26395;53.412;19.598;2023-04-12T07:56:57;34.20;;;20.60;;
31010;SDS011;26395;53.412;19.598;2023-04-12T08:12:01;28.30;;;18.50;;
31010;SDS011;26395;53.412;19.598;2023-04-12T08:27:05;32.00;;;21.00;;
31010;SDS011;26395;53.412;19.598;2023-04-12T08:42:08;31.20;;;18.40;;
31010;SDS011;26395;53.412;19.598;2023-04-12T08:57:12;33.40;;;19.20;;
31010;SDS011;26395;53.412;19.598;2023-04-12T09:12:16;33.00;;;19.40;;
31010;SDS011;26395;53.412;19.598;2023-04-12T09:27:22;25.50;;;15.50;;
31010;SDS011;26395;53.412;19.598;2023-04-12T09:42:27;24.60;;;16.30;;
31010;SDS011;26395;53.412;19.598;2023-04-12T09:57:37;23.70;;;16.90;;
31010;SDS011;26395;53.412;19.598;2023-04-12T10:12:43;25.70;;;16.40;;
31010;SDS011;26395;53.412;19.598;2023-04-12T10:27:49;24.10;;;15.20;;
31010;SDS011;26395;53.412;19.598;2023-04-12T11:13:54;22.80;;;12.70;;
31010;SDS011;26395;53.412;19.598;2023-04-12T11:29:05;14.00;;;10.90;;
31010;SDS011;26395;53.412;19.598;2023-04-12T11:44:09;28.90;;;14.20;;
31010;SDS011;26395;53.412;19.598;2023-04-12T11:59:13;20.00;;;11.70;;
31010;SDS011;26395;53.412;19.598;2023-04-12T12:14:17;15.80;;;11.10;;
31010;SDS011;26395;53.412;19.598;2023-04-12T12:29:22;14.50;;;10.90;;
31010;SDS011;26395;53.412;19.598;2023-04-12T12:44:27;15.20;;;10.50;;
31010;SDS011;26395;53.412;19.598;2023-04-12T12:59:30;14.60;;;10.80;;
31010;SDS011;26395;53.412;19.598;2023-04-12T13:14:33;16.80;;;11.10;;
31010;SDS011;26395;53.412;19.598;2023-04-12T13:29:37;16.90;;;10.00;;
31010;SDS011;26395;53.412;19.598;2023-04-12T13:44:41;14.90;;;9.20;;
31010;SDS011;26395;53.412;19.598;2023-04-12T13:59:45;13.10;;;8.20;;
31010;SDS011;26395;53.412;19.598;2023-04-12T14:14:48;112.60;;;62.80;;
31010;SDS011;26395;53.412;19.598;2023-04-12T14:29:52;9.00;;;7.60;;
31010;SDS011;26395;53.412;19.598;2023-04-12T14:44:55;9.10;;;7.00;;
31010;SDS011;26395;53.412;19.598;2023-04-12T14:59:59;10.20;;;6.40;;
31010;SDS011;26395;53.412;19.598;2023-04-12T15:15:03;33.00;;;20.70;;
31010;SDS011;26395;53.412;19.598;2023-04-12T15:30:08;12.70;;;8.10;;
31010;SDS011;26395;53.412;19.598;2023-04-12T15:45:13;10.00;;;7.50;;
31010;SDS011;26395;53.412;19.598;2023-04-12T16:00:17;10.90;;;8.00;;
31010;SDS011;26395;53.412;19.598;2023-04-12T16:15:25;15.10;;;8.70;;
31010;SDS011;26395;53.412;19.598;2023-04-12T16:30:29;14.50;;;7.40;;
31010;SDS011;26395;53.412;19.598;2023-04-12T16:45:34;12.00;;;8.10;;
31010;SDS011;26395;53.412;19.598;2023-04-12T17:00:38;20.70;;;14.50;;
31010;SDS011;26395;53.412;19.598;2023-04-12T17:15:44;47.30;;;24.60;;
31010;SDS011;26395;53.412;19.598;2023-04-12T17:30:50;111.90;;;62.00;;
31010;SDS011;26395;53.412;19.598;2023-04-12T17:45:53;75.80;;;68.00;;
31010;SDS011;26395;53.412;19.598;2023-04-12T18:00:58;28.30;;;18.70;;
31010;SDS011;26395;53.412;19.598;2023-04-12T18:16:02;59.00;;;28.20;;
31010;SDS011;26395;53.412;19.598;2023-04-12T18:31:08;82.60;;;37.20;;
31010;SDS011;26395;53.412;19.598;2023-04-12T18:46:15;85.90;;;39.00;;
31010;SDS011;26395;53.412;19.598;2023-04-12T19:01:20;60.90;;;32.20;;
31010;SDS011;26395;53.412;19.598;2023-04-12T19:16:27;110.70;;;49.50;;
31010;SDS011;26395;53.412;19.598;2023-04-12T19:31:31;94.00;;;51.60;;
31010;SDS011;26395;53.412;19.598;2023-04-12T19:46:37;94.80;;;41.40;;
31010;SDS011;26395;53.412;19.598;2023-04-12T20:01:42;83.40;;;37.30;;
31010;SDS011;26395;53.412;19.598;2023-04-12T20:16:53;74.30;;;36.60;;
31010;SDS011;26395;53.412;19.598;2023-04-12T20:32:00;92.70;;;46.10;;
31010;SDS011;26395;53.412;19.598;2023-04-12T20:47:04;322.20;;;121.60;;
31010;SDS011;26395;53.412;19.598;2023-04-12T21:02:09;264.50;;;105.20;;
31010;SDS011;26395;53.412;19.598;2023-04-12T21:17:13;184.90;;;75.80;;
31010;SDS011;26395;53.412;19.598;2023-04-12T21:32:17;107.70;;;47.80;;
31010;SDS011;26395;53.412;19.598;2023-04-12T21:47:20;94.10;;;41.40;;
31010;SDS011;26395;53.412;19.598;2023-04-12T22:02:24;230.90;;;86.10;;
31010;SDS011;26395;53.412;19.598;2023-04-12T22:17:29;96.00;;;43.70;;
31010;SDS011;26395;53.412;19.598;2023-04-12T22:32:33;133.30;;;60.40;;
31010;SDS011;26395;53.412;19.598;2023-04-12T22:47:36;126.90;;;57.80;;
31010;SDS011;26395;53.412;19.598;2023-04-12T23:02:39;142.70;;;64.80;;
31010;SDS011;26395;53.412;19.598;2023-04-12T23:17:43;93.00;;;45.60;;
31010;SDS011;26395;53.412;19.598;2023-04-12T23:32:46;72.20;;;38.60;;
31010;SDS011;26395;53.412;19.598;2023-04-12T23:47:49;75.10;;;38.00;;
